Abu Musa, Iran

4:30 AM IRST on November 23, 2014 (GMT +0330)
Bandar Lengeh | Change Station
CLOSE
Current Station
Airport
Location: Bandar Lengeh,
Elevation: 75 ft
Nearby Weather Stations

Elev 75 ft 26.53 °N, 54.82 °E | Updated 1 hour ago

Clear
Clear
72 °F
Feels Like 72 °F
N
0
Wind Variable Wind from North

Today
High -- | Low -- °F
--% Chance of Precip.
Yesterday
High -- | Low -- °F
Precip. -- in
6:14 AM 4:59 PM
New Moon, 0% visible
Pressure 29.89 in
Visibility 5.0 miles
Clouds Clear
Dew Point 64 °F
Humidity 78%
Rainfall 0.00 in
Snow Depth Not available.
UV 0 out of 12
Pollen Not available.
Air Quality Not available.
Flu Activity Not available.
METAR OIBL 230000Z 00000KT 8000 SKC 22/18 Q1012

More Conditions Fewer Conditions

Pressure 29.89 in
Visibility 5.0 miles
Clouds Clear
Dew Point 64 °F
Humidity 78%
Rainfall 0.00 in
Snow Depth Not available.
UV 0 out of 12
Pollen Not available.
Air Quality Not available.
Flu Activity Not available.
METAR OIBL 230000Z 00000KT 8000 SKC 22/18 Q1012

More Conditions Fewer Conditions

10-Day Weather Forecast

Almanac

Astronomy

Nov. 23, 2014 Rise Set
Actual Time
Civil Twilight
Nautical Twilight
Astronomical Twilight
Moon
Length of Visible Light
Length of Day
Tomorrow will be .
, % of the Moon is Illuminated

Today's Extremes

Country Highs Country Lows

Community

WunderPhotos

Upload Photos

1,772,949 photos uploaded!

WunderBlogs® & News

Nearby

Air Quality

  Air Quality AQ Index Pollutant
Not available.

Snow Depth

Station Depth Elevation

Earthquake Activity

City Distance Mag. Time & Date
Minimum magnitude displayed is 2.5.

Coastal Water Temperatures

Place Temperature

Nearby Weather Stations